Etusivu
METAR-TAF:

METAR-TAF

Lentoasemat :

Epinal, Ranska

Leveyspiiri: 48-19-31N, Pituuspiiri: 6-04-00E, korkeus merenpinnasta: 330 m

Tämänhetkinen sää

Tämä raportti tehtiin 44 minuuttia sitten, kello 05.00 UTC
Tuuli 1 kn eri suunnista
Lämpötila -2°C
Kosteus 100%
Ilmanpaine 1032 hPa
Näkyvyys: 0350 m
jäätävää sumua

METAR: LFSG 190500Z AUTO VRB01KT 0350 R26/0400N FZFG VV/// M02/M02 Q1032

Aika: 06:44 (05:44 UTC)


TAF: puuttuu

Säähavainnot ja -ennusteet yli 4000 lentoasemalta (METAR- ja TAF-raportit).

Käytössä olevat sääasemat on merkitty karttaan keltaisilla ja punaisilla pisteillä.

Aseta hiiri pisteen päälle nähdäksesi sääaseman nimen.

Klikkaa sitten nähdäksesi säähavainnot ja -ennusteet.

Kartan vaihtaminen: klikkaa mustalla rastilla varustettuja vihreitä pisteitä, niin voit zoomata sisään; viivalla varustettua vihreää pistettä, niin voit zoomata ulos tai vihreitä nuolia, niin pääset viereisille kartoille.


METAR-TAF: